Time;durP1;ratioP1;P1;durP2;ratioP2;P2;SDS_P1;SDS_P2;PMS_P1;PMS_P2;Temp;Humidity;BMP_temperature;BMP_pressure;BME280_temperature;BME280_humidity;BME280_pressure;Samples;Min_cycle;Max_cycle;Signal;HPM_P1;HPM_P2
2022/05/18 00:00:54;;;;;;;4.57;3.72;;;16.70;99.90;;;;;;5011880;28;20029;-76
2022/05/18 00:03:23;;;;;;;7.45;3.50;;;16.90;99.90;;;;;;4983059;28;20420;-77
2022/05/18 00:05:49;;;;;;;5.57;3.47;;;16.90;99.90;;;;;;4994089;28;20512;-77
2022/05/18 00:08:15;;;;;;;5.47;3.35;;;16.90;99.90;;;;;;4994185;28;20038;-78
2022/05/18 00:10:44;;;;;;;4.60;3.25;;;16.80;99.90;;;;;;4995782;28;20029;-75
2022/05/18 00:13:10;;;;;;;4.88;3.42;;;16.80;99.90;;;;;;5001733;28;20067;-75
2022/05/18 00:15:37;;;;;;;6.32;3.55;;;16.70;99.90;;;;;;4996762;28;20504;-76
2022/05/18 00:18:03;;;;;;;5.63;3.33;;;16.70;99.90;;;;;;4992651;28;20076;-76
2022/05/18 00:20:28;;;;;;;5.75;3.33;;;16.70;99.90;;;;;;5007610;28;20493;-76
2022/05/18 00:22:59;;;;;;;5.57;3.45;;;16.70;99.90;;;;;;4995529;28;20034;-77
2022/05/18 00:25:28;;;;;;;7.03;3.80;;;16.70;99.90;;;;;;5010981;28;20021;-77
2022/05/18 00:27:54;;;;;;;5.03;3.92;;;16.80;99.90;;;;;;5013058;28;20109;-75
2022/05/18 00:30:22;;;;;;;6.38;3.75;;;16.80;99.90;;;;;;5007499;28;20093;-76
2022/05/18 00:32:48;;;;;;;4.10;3.35;;;16.80;99.90;;;;;;4993579;28;20027;-76
2022/05/18 00:35:15;;;;;;;5.53;3.33;;;16.80;99.90;;;;;;5012008;28;20396;-75
2022/05/18 00:37:40;;;;;;;4.93;3.83;;;16.80;99.90;;;;;;5011831;28;20030;-73
2022/05/18 00:40:08;;;;;;;5.53;3.10;;;16.80;99.90;;;;;;5013009;28;20033;-73
2022/05/18 00:42:33;;;;;;;7.38;3.60;;;16.80;99.90;;;;;;5011211;28;20149;-76
2022/05/18 00:44:59;;;;;;;3.92;3.38;;;16.70;99.90;;;;;;5011760;28;20061;-76
2022/05/18 00:47:24;;;;;;;5.30;3.60;;;16.80;99.90;;;;;;5011979;28;20673;-76
2022/05/18 00:49:58;;;;;;;4.45;3.58;;;16.70;99.90;;;;;;5013427;28;20041;-76
2022/05/18 00:52:32;;;;;;;7.60;4.05;;;16.60;99.90;;;;;;5012678;28;20022;-76
2022/05/18 00:55:00;;;;;;;4.90;3.40;;;16.60;99.90;;;;;;5006088;28;20531;-77
2022/05/18 00:57:36;;;;;;;4.40;3.50;;;16.70;99.90;;;;;;4994349;28;20480;-74
2022/05/18 01:00:10;;;;;;;6.32;3.45;;;16.60;99.90;;;;;;4992932;28;20027;-74
2022/05/18 01:02:39;;;;;;;5.95;3.35;;;16.70;99.90;;;;;;4995055;28;20030;-74
2022/05/18 01:05:08;;;;;;;8.32;4.03;;;16.70;99.90;;;;;;4991597;28;20030;-73
2022/05/18 01:07:38;;;;;;;6.68;3.85;;;16.60;99.90;;;;;;4992838;28;20030;-74
2022/05/18 01:10:05;;;;;;;7.43;3.70;;;16.10;99.90;;;;;;4993023;28;20026;-74
2022/05/18 01:12:31;;;;;;;5.78;3.75;;;15.90;99.90;;;;;;4992207;28;20038;-74
2022/05/18 01:15:02;;;;;;;5.85;3.53;;;16.00;99.90;;;;;;4991608;28;20026;-76
2022/05/18 01:17:32;;;;;;;6.22;3.83;;;16.30;99.90;;;;;;4993117;28;20030;-76
2022/05/18 01:20:00;;;;;;;5.00;3.50;;;16.40;99.90;;;;;;4991580;28;20023;-74
2022/05/18 01:23:03;;;;;;;4.60;3.30;;;16.50;99.90;;;;;;4990109;28;20029;-73
2022/05/18 01:26:02;;;;;;;5.60;3.42;;;16.60;99.90;;;;;;4995731;28;20102;-74
2022/05/18 01:28:33;;;;;;;4.15;3.60;;;16.60;99.90;;;;;;5008546;28;20022;-73
2022/05/18 01:30:59;;;;;;;7.40;3.83;;;16.60;99.90;;;;;;4992068;28;20049;-75
2022/05/18 01:33:25;;;;;;;7.03;3.55;;;16.60;99.90;;;;;;4992607;28;20476;-76
2022/05/18 01:35:50;;;;;;;4.50;3.70;;;16.60;99.90;;;;;;4993295;28;20042;-75
2022/05/18 01:38:17;;;;;;;7.47;4.22;;;16.60;99.90;;;;;;4991511;28;20114;-75
2022/05/18 01:41:06;;;;;;;5.65;3.92;;;16.60;99.90;;;;;;4990658;28;20113;-76
2022/05/18 01:43:39;;;;;;;4.78;3.97;;;16.50;99.90;;;;;;4992205;28;20031;-77
2022/05/18 01:46:08;;;;;;;7.78;4.10;;;16.50;99.90;;;;;;4991431;28;20092;-77
2022/05/18 01:48:37;;;;;;;4.80;4.20;;;16.50;99.90;;;;;;4992496;28;20026;-77
2022/05/18 01:51:04;;;;;;;7.50;4.28;;;16.60;99.90;;;;;;4991254;28;20125;-76
2022/05/18 01:53:31;;;;;;;5.53;4.22;;;16.60;99.90;;;;;;4994762;28;20084;-75
2022/05/18 01:55:57;;;;;;;6.95;4.10;;;16.60;99.90;;;;;;4993028;28;20488;-74
2022/05/18 01:58:23;;;;;;;5.00;4.25;;;16.50;99.90;;;;;;4998005;28;20038;-77
2022/05/18 02:00:50;;;;;;;6.15;4.22;;;16.50;99.90;;;;;;4999227;28;20388;-77
2022/05/18 02:03:17;;;;;;;6.40;4.72;;;16.50;99.90;;;;;;4996362;28;20022;-75
2022/05/18 02:05:43;;;;;;;5.95;4.32;;;16.60;99.90;;;;;;4993272;28;20030;-76
2022/05/18 02:08:10;;;;;;;5.45;4.85;;;16.70;99.90;;;;;;5010480;28;20496;-77
2022/05/18 02:10:36;;;;;;;6.07;4.72;;;16.70;99.90;;;;;;5011073;28;20228;-77
2022/05/18 02:13:02;;;;;;;6.05;5.03;;;16.60;99.90;;;;;;5001106;28;20027;-76
2022/05/18 02:15:28;;;;;;;6.15;5.38;;;16.50;99.90;;;;;;4993282;28;20080;-79
2022/05/18 02:17:53;;;;;;;5.47;4.93;;;16.50;99.90;;;;;;4991968;28;20045;-80
2022/05/18 02:20:20;;;;;;;6.00;5.40;;;16.60;99.90;;;;;;4993995;28;20101;-78
2022/05/18 02:22:46;;;;;;;7.20;5.80;;;16.60;99.90;;;;;;4995137;28;20038;-79
2022/05/18 02:25:12;;;;;;;6.88;6.18;;;16.60;99.90;;;;;;4990669;28;20493;-79
2022/05/18 02:27:37;;;;;;;7.35;5.80;;;16.70;99.90;;;;;;4990713;28;20365;-77
2022/05/18 02:30:05;;;;;;;7.30;5.88;;;16.60;99.90;;;;;;4990654;28;20029;-76
2022/05/18 02:32:30;;;;;;;6.20;5.60;;;16.50;99.90;;;;;;4991317;28;20022;-77
2022/05/18 02:34:56;;;;;;;6.60;5.68;;;16.60;99.90;;;;;;4993322;28;20030;-78
2022/05/18 02:37:21;;;;;;;6.70;6.10;;;16.70;99.90;;;;;;4995772;28;20395;-78
2022/05/18 02:39:47;;;;;;;9.85;6.70;;;16.70;99.90;;;;;;5003065;28;20022;-76
2022/05/18 02:42:12;;;;;;;7.90;6.00;;;16.70;99.90;;;;;;4995484;28;20042;-75
2022/05/18 02:44:38;;;;;;;8.18;6.35;;;16.50;99.90;;;;;;5008618;28;20123;-76
2022/05/18 02:47:04;;;;;;;6.90;5.80;;;16.30;99.90;;;;;;4995531;28;20030;-75
2022/05/18 02:49:30;;;;;;;8.05;6.65;;;16.40;99.90;;;;;;4995513;28;20399;-75
2022/05/18 02:51:55;;;;;;;7.68;6.65;;;16.50;99.90;;;;;;4993916;28;20451;-76
2022/05/18 02:57:07;;;;;;;8.95;6.22;;;16.40;99.90;;;;;;4995338;28;20459;-75
2022/05/18 02:59:34;;;;;;;13.52;5.82;;;16.10;99.90;;;;;;4995348;28;20042;-75
2022/05/18 03:02:00;;;;;;;6.72;6.03;;;16.00;99.90;;;;;;4993408;28;20098;-75
2022/05/18 03:04:25;;;;;;;7.47;6.40;;;16.00;99.90;;;;;;4995497;28;20055;-73
2022/05/18 03:06:52;;;;;;;8.30;7.32;;;16.20;99.90;;;;;;4993873;28;20065;-77
2022/05/18 03:09:18;;;;;;;9.63;7.85;;;16.30;99.90;;;;;;4995289;28;20032;-78
2022/05/18 03:11:44;;;;;;;8.60;7.80;;;16.40;99.90;;;;;;4993391;28;20050;-77
2022/05/18 03:14:10;;;;;;;11.95;8.00;;;16.60;99.90;;;;;;5000398;28;20037;-76
2022/05/18 03:16:37;;;;;;;9.65;8.05;;;16.70;99.90;;;;;;5014597;28;20034;-76
2022/05/18 03:19:03;;;;;;;9.15;7.70;;;16.60;99.90;;;;;;5013429;28;20030;-77
2022/05/18 03:24:12;;;;;;;9.55;7.57;;;16.40;99.90;;;;;;5014681;28;20549;-76
2022/05/18 03:26:38;;;;;;;8.48;7.40;;;16.10;99.90;;;;;;5012919;28;20033;-76
2022/05/18 03:29:04;;;;;;;7.75;6.53;;;16.00;99.90;;;;;;5015102;28;20093;-75
2022/05/18 03:31:29;;;;;;;7.60;6.90;;;15.60;99.90;;;;;;4999119;28;20048;-77
2022/05/18 03:33:56;;;;;;;8.32;7.28;;;15.90;99.90;;;;;;5002666;28;20178;-76
2022/05/18 03:36:22;;;;;;;8.35;7.13;;;15.90;99.90;;;;;;5014713;28;20054;-76
2022/05/18 03:38:49;;;;;;;9.95;7.93;;;16.00;99.90;;;;;;5012822;28;20025;-76
2022/05/18 03:41:16;;;;;;;13.35;8.73;;;15.90;99.90;;;;;;5012249;28;20030;-75
2022/05/18 03:43:42;;;;;;;9.82;7.45;;;15.90;99.90;;;;;;5012955;28;20041;-73
2022/05/18 03:46:08;;;;;;;10.13;8.10;;;16.00;99.90;;;;;;5013150;28;20038;-76
2022/05/18 03:48:34;;;;;;;9.48;7.55;;;16.10;99.90;;;;;;5013985;28;20029;-77
2022/05/18 03:51:02;;;;;;;8.20;7.30;;;16.10;99.90;;;;;;5013436;28;20018;-75
2022/05/18 03:53:28;;;;;;;8.52;7.65;;;16.30;99.90;;;;;;5012722;28;20022;-75
2022/05/18 03:55:55;;;;;;;9.07;7.63;;;16.30;99.90;;;;;;4998821;28;20030;-76
2022/05/18 03:58:21;;;;;;;8.65;7.72;;;16.20;99.90;;;;;;4994171;28;20041;-75
2022/05/18 04:00:48;;;;;;;9.00;8.10;;;16.20;99.90;;;;;;4992316;28;20030;-75
2022/05/18 04:03:15;;;;;;;10.98;8.75;;;16.20;99.90;;;;;;4994245;28;20042;-74
2022/05/18 04:05:41;;;;;;;9.63;8.43;;;16.20;99.90;;;;;;4994079;28;20026;-75
2022/05/18 04:08:09;;;;;;;9.68;8.68;;;16.30;99.90;;;;;;4994109;28;20018;-75
2022/05/18 04:10:35;;;;;;;11.18;8.57;;;16.20;99.90;;;;;;4993368;28;20037;-75
2022/05/18 04:13:01;;;;;;;12.00;8.57;;;16.10;99.90;;;;;;4994056;28;20026;-75
2022/05/18 04:15:27;;;;;;;11.07;8.68;;;16.20;99.90;;;;;;4994034;28;20080;-75
2022/05/18 04:17:52;;;;;;;8.68;7.88;;;16.10;99.90;;;;;;4992750;28;20085;-73
2022/05/18 04:20:20;;;;;;;10.63;8.82;;;16.10;99.90;;;;;;4993258;28;20031;-75
2022/05/18 04:22:46;;;;;;;9.32;8.25;;;16.10;99.90;;;;;;4992513;28;20065;-74
2022/05/18 04:25:15;;;;;;;10.10;9.10;;;16.10;99.90;;;;;;4993718;28;20058;-74
2022/05/18 04:27:41;;;;;;;9.75;8.75;;;16.10;99.90;;;;;;4992557;28;20058;-74
2022/05/18 04:30:08;;;;;;;10.18;9.18;;;16.20;99.90;;;;;;4993710;28;20154;-76
2022/05/18 04:32:33;;;;;;;9.18;8.38;;;16.20;99.90;;;;;;4993338;28;20027;-74
2022/05/18 04:34:59;;;;;;;10.48;9.43;;;16.30;99.90;;;;;;5009236;28;20029;-75
2022/05/18 04:37:24;;;;;;;10.25;9.25;;;16.40;99.90;;;;;;5013073;28;20022;-75
2022/05/18 04:39:50;;;;;;;11.65;8.70;;;16.40;99.90;;;;;;5013395;28;20033;-75
2022/05/18 04:42:16;;;;;;;10.50;9.25;;;16.40;99.90;;;;;;5012530;28;20044;-75
2022/05/18 04:44:41;;;;;;;11.77;9.40;;;16.40;99.90;;;;;;4999993;28;20396;-75
2022/05/18 04:47:07;;;;;;;11.38;9.10;;;16.50;99.90;;;;;;5012952;28;20026;-74
2022/05/18 04:49:33;;;;;;;12.38;9.43;;;16.60;99.90;;;;;;5013013;28;20106;-74
2022/05/18 04:52:00;;;;;;;10.38;9.27;;;16.70;99.90;;;;;;5002432;28;20030;-74
2022/05/18 04:54:26;;;;;;;9.82;8.82;;;16.60;99.90;;;;;;5005821;28;20027;-74
2022/05/18 04:56:51;;;;;;;10.05;8.80;;;16.70;99.90;;;;;;5002805;28;20118;-74
2022/05/18 04:59:17;;;;;;;10.63;9.13;;;16.90;99.90;;;;;;4999786;28;20033;-75
2022/05/18 05:01:43;;;;;;;10.60;9.60;;;17.10;99.90;;;;;;5003041;28;20035;-75
2022/05/18 05:04:09;;;;;;;11.50;9.80;;;17.00;99.90;;;;;;4994726;28;20053;-74
2022/05/18 05:06:40;;;;;;;10.88;9.90;;;17.00;99.90;;;;;;5003065;28;20034;-74
2022/05/18 05:09:06;;;;;;;12.75;10.52;;;16.80;99.90;;;;;;4991942;28;20022;-74
2022/05/18 05:11:32;;;;;;;10.93;9.77;;;16.60;99.90;;;;;;5002850;28;20022;-74
2022/05/18 05:13:57;;;;;;;10.95;9.95;;;16.40;99.90;;;;;;4999524;28;20030;-74
2022/05/18 05:16:23;;;;;;;11.82;9.82;;;16.60;99.90;;;;;;5001233;28;20027;-74
2022/05/18 05:18:48;;;;;;;11.07;9.98;;;16.80;99.90;;;;;;5004811;28;20499;-75
2022/05/18 05:21:14;;;;;;;11.75;10.65;;;16.70;99.90;;;;;;5001096;28;20033;-74
2022/05/18 05:23:39;;;;;;;11.45;10.25;;;16.70;99.90;;;;;;4999333;28;20030;-74
2022/05/18 05:26:05;;;;;;;11.30;10.07;;;16.70;99.90;;;;;;5001376;28;20057;-74
2022/05/18 05:28:31;;;;;;;10.45;9.30;;;17.00;99.90;;;;;;5004712;28;20026;-75
2022/05/18 05:31:07;;;;;;;15.60;10.05;;;17.20;99.90;;;;;;5002040;28;20037;-75
2022/05/18 05:33:34;;;;;;;12.88;10.00;;;17.30;99.90;;;;;;4999330;28;20084;-75
2022/05/18 05:36:00;;;;;;;10.88;8.98;;;17.30;99.90;;;;;;5000943;28;20511;-74
2022/05/18 05:38:26;;;;;;;10.45;8.95;;;17.30;99.90;;;;;;4997436;28;20057;-74
2022/05/18 05:40:51;;;;;;;10.55;9.45;;;17.20;99.90;;;;;;5011673;28;20034;-75
2022/05/18 05:43:17;;;;;;;10.20;8.57;;;17.40;99.90;;;;;;4999063;28;20079;-74
2022/05/18 05:45:54;;;;;;;10.77;9.68;;;17.50;99.90;;;;;;5001036;28;20026;-75
2022/05/18 05:48:19;;;;;;;10.68;9.00;;;17.50;99.90;;;;;;5004598;28;20022;-74
2022/05/18 05:50:45;;;;;;;10.73;9.57;;;17.60;99.90;;;;;;5003198;28;20034;-75
2022/05/18 05:53:10;;;;;;;10.60;9.60;;;17.70;99.90;;;;;;4997474;28;20022;-75
2022/05/18 05:55:36;;;;;;;10.32;9.23;;;17.80;99.90;;;;;;4999430;28;20031;-75
2022/05/18 05:58:01;;;;;;;13.00;9.77;;;17.90;99.90;;;;;;5039233;22;20132;-73
2022/05/18 06:00:27;;;;;;;12.75;9.60;;;18.10;99.90;;;;;;5038537;28;20018;-73
2022/05/18 06:02:53;;;;;;;15.25;9.90;;;18.10;99.90;;;;;;5043673;28;20022;-73
2022/05/18 06:05:19;;;;;;;12.00;10.10;;;18.10;99.90;;;;;;5044338;28;20021;-73
2022/05/18 06:07:45;;;;;;;10.57;9.48;;;18.10;99.90;;;;;;5031911;28;20021;-72
2022/05/18 06:10:12;;;;;;;11.15;9.68;;;18.10;99.90;;;;;;5031011;28;20030;-72
2022/05/18 06:12:38;;;;;;;10.93;9.82;;;17.80;99.90;;;;;;5025035;28;20033;-72
2022/05/18 06:15:06;;;;;;;11.68;10.52;;;17.90;99.90;;;;;;5014559;28;20029;-72
2022/05/18 06:17:32;;;;;;;12.30;10.60;;;17.90;99.90;;;;;;5018563;28;20043;-72
2022/05/18 06:19:57;;;;;;;11.35;10.13;;;17.60;99.90;;;;;;5031403;28;20033;-72
2022/05/18 06:22:23;;;;;;;12.52;10.60;;;17.50;99.90;;;;;;5024302;28;20026;-72
2022/05/18 06:24:51;;;;;;;10.85;9.75;;;17.70;99.90;;;;;;5025072;28;20068;-72
2022/05/18 06:27:17;;;;;;;18.15;10.40;;;17.90;99.90;;;;;;5017864;28;20356;-72
2022/05/18 06:29:43;;;;;;;12.00;9.82;;;18.30;99.90;;;;;;5025485;28;20033;-73
2022/05/18 06:32:08;;;;;;;10.52;9.43;;;18.40;99.90;;;;;;5016807;28;20037;-72
2022/05/18 06:34:35;;;;;;;11.48;9.68;;;18.60;99.90;;;;;;5025150;28;20030;-72
2022/05/18 06:37:03;;;;;;;11.35;9.85;;;18.60;99.90;;;;;;5031335;28;20040;-72
2022/05/18 06:39:28;;;;;;;11.27;9.55;;;18.70;99.90;;;;;;5030618;28;20022;-72
2022/05/18 06:41:54;;;;;;;10.90;9.80;;;18.60;99.90;;;;;;5018363;28;20033;-72
2022/05/18 06:44:20;;;;;;;10.23;9.13;;;18.40;99.90;;;;;;5030771;28;20041;-72
2022/05/18 06:46:47;;;;;;;11.30;10.20;;;18.40;99.90;;;;;;5011502;28;20026;-72
2022/05/18 06:49:13;;;;;;;10.73;9.65;;;18.80;99.90;;;;;;5025233;28;20024;-72
2022/05/18 06:51:41;;;;;;;10.98;9.88;;;18.80;99.90;;;;;;5022696;28;20026;-73
2022/05/18 06:54:07;;;;;;;10.43;9.15;;;18.80;99.90;;;;;;5011337;28;20507;-72
2022/05/18 06:56:38;;;;;;;10.57;9.55;;;19.00;99.90;;;;;;5018643;28;20037;-73
2022/05/18 06:59:04;;;;;;;10.18;9.15;;;19.00;99.90;;;;;;5031066;28;20037;-73
2022/05/18 07:01:30;;;;;;;9.93;8.45;;;18.90;99.90;;;;;;5024155;28;20057;-73
2022/05/18 07:03:57;;;;;;;9.23;8.40;;;18.90;99.90;;;;;;5025419;28;20495;-73
2022/05/18 07:06:25;;;;;;;10.50;8.98;;;18.90;99.90;;;;;;5031061;28;20033;-73
2022/05/18 07:08:52;;;;;;;9.77;8.68;;;19.00;99.90;;;;;;5017849;28;20022;-73
2022/05/18 07:11:20;;;;;;;12.07;8.98;;;19.20;99.90;;;;;;5030573;28;20018;-73
2022/05/18 07:13:46;;;;;;;9.80;8.80;;;19.30;99.90;;;;;;5029395;28;20022;-72
2022/05/18 07:16:12;;;;;;;10.20;9.23;;;19.40;99.90;;;;;;5019817;28;20428;-73
2022/05/18 07:18:38;;;;;;;9.52;8.57;;;19.40;99.90;;;;;;5029645;28;20021;-73
2022/05/18 07:21:06;;;;;;;10.27;9.32;;;19.30;99.90;;;;;;5031700;28;20028;-73
2022/05/18 07:23:32;;;;;;;10.82;9.82;;;19.50;99.90;;;;;;5033330;28;20033;-73
2022/05/18 07:25:58;;;;;;;10.57;9.48;;;19.50;99.90;;;;;;5024306;28;20050;-73
2022/05/18 07:28:24;;;;;;;10.88;9.35;;;19.50;99.90;;;;;;5030115;28;20398;-73
2022/05/18 07:30:51;;;;;;;9.88;8.98;;;19.40;99.90;;;;;;5024822;28;20026;-72
2022/05/18 07:33:17;;;;;;;10.00;9.05;;;19.60;99.90;;;;;;5030361;28;20025;-73
2022/05/18 07:35:44;;;;;;;13.35;8.93;;;19.40;99.90;;;;;;5033123;28;20021;-73
2022/05/18 07:38:10;;;;;;;10.63;9.15;;;19.60;99.90;;;;;;5020819;28;20042;-73
2022/05/18 07:40:35;;;;;;;11.43;9.25;;;19.70;99.90;;;;;;5033621;28;20341;-73
2022/05/18 07:43:02;;;;;;;9.43;8.43;;;19.70;99.90;;;;;;5034100;28;20644;-73
2022/05/18 07:45:28;;;;;;;10.02;9.00;;;19.80;99.90;;;;;;5034144;28;20422;-72
2022/05/18 07:47:54;;;;;;;9.57;8.30;;;19.90;99.90;;;;;;5033897;28;20021;-73
2022/05/18 07:50:22;;;;;;;8.13;7.32;;;20.20;99.90;;;;;;5033411;28;20118;-73
2022/05/18 07:52:48;;;;;;;9.13;8.23;;;20.60;99.90;;;;;;5017918;28;20026;-73
2022/05/18 07:55:13;;;;;;;8.60;7.70;;;20.80;99.90;;;;;;5012314;28;20388;-73
2022/05/18 07:57:39;;;;;;;9.10;8.18;;;20.50;99.90;;;;;;5013800;28;20037;-73
2022/05/18 08:00:08;;;;;;;8.82;7.93;;;20.70;99.90;;;;;;5025024;28;20036;-73
2022/05/18 08:02:34;;;;;;;9.82;8.80;;;20.60;99.90;;;;;;5033259;28;20030;-73
2022/05/18 08:05:00;;;;;;;9.55;8.40;;;20.80;99.90;;;;;;5032579;28;20453;-73
2022/05/18 08:07:26;;;;;;;8.55;7.70;;;21.00;99.90;;;;;;5032405;28;20022;-73
2022/05/18 08:15:20;;;;;;;8.45;7.65;;;21.00;99.90;;;;;;5032765;28;20051;-73
2022/05/18 08:17:46;;;;;;;9.65;7.75;;;21.10;99.90;;;;;;5021479;28;20037;-73
2022/05/18 08:20:18;;;;;;;8.48;7.57;;;21.10;99.90;;;;;;5031875;28;20131;-73
2022/05/18 08:22:44;;;;;;;9.70;7.70;;;21.70;99.90;;;;;;5033494;28;20076;-73
2022/05/18 08:25:10;;;;;;;10.15;7.93;;;21.90;99.90;;;;;;5033360;28;20033;-72
2022/05/18 08:27:54;;;;;;;7.55;6.57;;;21.50;99.90;;;;;;5032117;28;20048;-73
2022/05/18 08:30:22;;;;;;;8.20;7.07;;;21.50;99.90;;;;;;5015239;28;20557;-73
2022/05/18 08:32:48;;;;;;;8.45;7.30;;;21.80;99.90;;;;;;5013032;28;20022;-73
2022/05/18 08:35:14;;;;;;;8.15;7.35;;;21.80;99.90;;;;;;5013365;28;20097;-73
2022/05/18 08:37:42;;;;;;;7.70;6.68;;;21.90;99.90;;;;;;5024256;28;20025;-73
2022/05/18 08:40:31;;;;;;;8.60;7.10;;;22.00;99.90;;;;;;5019664;28;20034;-73
2022/05/18 08:42:58;;;;;;;8.07;7.28;;;21.90;99.90;;;;;;5033056;28;20032;-73
2022/05/18 08:45:29;;;;;;;7.60;6.78;;;21.70;99.90;;;;;;5023800;28;20104;-73
2022/05/18 08:48:29;;;;;;;8.68;6.78;;;21.80;99.90;;;;;;5028211;28;20502;-73
2022/05/18 08:51:03;;;;;;;8.70;6.95;;;21.70;99.90;;;;;;5019149;28;20547;-73
2022/05/18 08:53:54;;;;;;;7.82;7.03;;;21.30;99.90;;;;;;5009059;28;20036;-73
2022/05/18 08:56:25;;;;;;;10.63;7.20;;;20.90;99.90;;;;;;5019440;28;20108;-73
2022/05/18 08:58:53;;;;;;;11.30;7.10;;;20.80;99.90;;;;;;5032718;28;20037;-73
2022/05/18 09:01:23;;;;;;;7.38;6.57;;;20.70;99.90;;;;;;5032091;28;20021;-73
2022/05/18 09:03:56;;;;;;;10.27;6.57;;;20.80;99.90;;;;;;5032742;28;20479;-73
2022/05/18 09:06:31;;;;;;;7.38;5.97;;;21.40;99.90;;;;;;5006394;28;20124;-73
2022/05/18 09:11:54;;;;;;;8.00;6.65;;;21.90;99.90;;;;;;5032208;28;20048;-73
2022/05/18 09:14:22;;;;;;;7.43;6.03;;;21.90;99.90;;;;;;5032366;28;20028;-73
2022/05/18 09:17:15;;;;;;;6.82;6.13;;;22.10;99.90;;;;;;5019268;28;20030;-73
2022/05/18 09:19:59;;;;;;;7.15;6.43;;;22.10;99.90;;;;;;5013323;28;20053;-73
2022/05/18 09:22:48;;;;;;;6.38;5.78;;;22.10;99.90;;;;;;5031810;28;20100;-73
2022/05/18 09:25:35;;;;;;;7.13;6.43;;;22.30;99.90;;;;;;4991423;28;20038;-72
2022/05/18 09:28:17;;;;;;;7.90;6.22;;;22.50;99.90;;;;;;5032144;28;20479;-73
2022/05/18 09:31:04;;;;;;;7.55;6.63;;;22.60;99.90;;;;;;5007311;28;20391;-73
2022/05/18 09:33:51;;;;;;;8.75;6.38;;;22.10;99.90;;;;;;5032155;28;20820;-73
2022/05/18 09:36:36;;;;;;;8.07;6.47;;;22.40;99.90;;;;;;5032119;28;20557;-73
2022/05/18 09:39:10;;;;;;;6.55;5.95;;;22.10;99.90;;;;;;5010483;28;20022;-73
2022/05/18 09:42:01;;;;;;;9.10;6.88;;;22.10;99.90;;;;;;5018177;28;20024;-72
2022/05/18 09:44:43;;;;;;;9.77;6.72;;;22.20;99.90;;;;;;5016687;28;20034;-73
2022/05/18 09:47:16;;;;;;;7.10;6.38;;;22.10;99.90;;;;;;5023135;28;20030;-72
2022/05/18 09:49:46;;;;;;;7.90;5.68;;;21.70;99.90;;;;;;5010832;28;20026;-73
2022/05/18 09:52:13;;;;;;;8.98;6.18;;;22.30;99.90;;;;;;5022019;28;20082;-72
2022/05/18 09:54:39;;;;;;;6.72;5.90;;;22.50;99.90;;;;;;5027044;28;20105;-73
2022/05/18 09:57:20;;;;;;;6.57;5.97;;;22.70;99.90;;;;;;5011978;28;20097;-73
2022/05/18 09:59:56;;;;;;;6.10;5.57;;;22.80;99.90;;;;;;5005451;28;20032;-73
2022/05/18 10:07:58;;;;;;;6.07;5.00;;;24.50;99.90;;;;;;5024784;28;20506;-72
2022/05/18 10:10:34;;;;;;;5.68;5.18;;;24.40;99.90;;;;;;5024370;28;20022;-73
2022/05/18 10:13:05;;;;;;;7.82;3.40;;;24.50;99.90;;;;;;5020497;28;20041;-73
2022/05/18 10:15:37;;;;;;;4.78;3.55;;;24.30;99.90;;;;;;5028579;28;20037;-72
2022/05/18 10:18:28;;;;;;;5.10;4.03;;;24.30;99.90;;;;;;5021978;28;20075;-73
2022/05/18 10:21:20;;;;;;;4.93;3.42;;;24.30;99.90;;;;;;5003908;28;20033;-73
2022/05/18 10:23:51;;;;;;;6.95;4.05;;;23.70;99.90;;;;;;5031593;28;20028;-73
2022/05/18 10:26:39;;;;;;;4.82;3.50;;;23.70;99.90;;;;;;5020522;28;20022;-73
2022/05/18 10:29:25;;;;;;;5.55;4.07;;;24.10;99.90;;;;;;5006176;28;20021;-72
2022/05/18 10:32:19;;;;;;;5.32;4.20;;;23.70;99.90;;;;;;5017004;28;20152;-72
2022/05/18 10:34:51;;;;;;;4.60;3.67;;;23.80;99.90;;;;;;5030374;28;20046;-73
2022/05/18 10:37:38;;;;;;;5.90;4.13;;;23.70;99.90;;;;;;5031257;28;20036;-73
2022/05/18 10:40:20;;;;;;;7.28;3.78;;;23.50;99.90;;;;;;5031284;28;20394;-73
2022/05/18 10:42:51;;;;;;;5.07;3.10;;;23.50;99.90;;;;;;5018104;28;20053;-73
2022/05/18 10:45:26;;;;;;;5.05;3.47;;;23.60;99.90;;;;;;4998942;28;20036;-73
2022/05/18 10:47:57;;;;;;;4.78;3.50;;;23.70;99.90;;;;;;5024608;28;20128;-73
2022/05/18 10:50:32;;;;;;;5.97;4.00;;;24.00;99.90;;;;;;5019830;28;20498;-72
2022/05/18 10:53:17;;;;;;;;;;;24.10;99.90;;;;;;5018071;28;20083;-72
2022/05/18 10:55:57;;;;;;;4.05;3.33;;;24.40;99.90;;;;;;5020165;28;19906;-73
2022/05/18 10:58:30;;;;;;;6.90;4.00;;;24.80;99.90;;;;;;5026329;28;20060;-73
2022/05/18 11:01:14;;;;;;;5.03;3.80;;;24.50;99.90;;;;;;5027512;28;20057;-73
2022/05/18 11:03:51;;;;;;;7.30;3.63;;;24.60;99.90;;;;;;5025789;28;20025;-73
2022/05/18 11:06:31;;;;;;;6.10;3.70;;;24.30;99.90;;;;;;5028116;28;20033;-73
2022/05/18 11:09:00;;;;;;;6.05;3.78;;;24.80;99.90;;;;;;5030137;28;20392;-72
2022/05/18 11:11:55;;;;;;;5.13;3.50;;;24.50;99.90;;;;;;5034252;28;20024;-73
2022/05/18 11:14:57;;;;;;;7.88;3.80;;;24.60;99.90;;;;;;5033437;28;20039;-73
2022/05/18 11:17:51;;;;;;;5.80;3.78;;;25.00;99.90;;;;;;5033324;28;20113;-73
2022/05/18 11:20:45;;;;;;;6.38;4.10;;;25.00;99.90;;;;;;4992734;28;20034;-73
2022/05/18 11:23:26;;;;;;;7.63;4.28;;;25.30;99.90;;;;;;5027235;28;20100;-73
2022/05/18 11:26:09;;;;;;;5.78;4.28;;;25.90;99.90;;;;;;5002611;28;20026;-72
2022/05/18 11:28:57;;;;;;;5.18;4.05;;;26.30;99.90;;;;;;5016233;28;20104;-73
2022/05/18 11:31:41;;;;;;;7.57;4.05;;;26.30;99.90;;;;;;5033879;28;20029;-73
2022/05/18 11:34:20;;;;;;;5.80;4.57;;;26.50;99.90;;;;;;5008935;28;20088;-73
2022/05/18 11:37:08;;;;;;;7.38;4.88;;;26.60;99.90;;;;;;5026684;28;20499;-73
2022/05/18 11:39:55;;;;;;;7.10;4.28;;;26.20;99.90;;;;;;5013345;28;20034;-73
2022/05/18 11:42:50;;;;;;;5.15;4.05;;;26.00;99.90;;;;;;5012882;28;20540;-73
2022/05/18 11:45:47;;;;;;;5.68;4.20;;;26.70;99.90;;;;;;5008288;28;20029;-73
2022/05/18 11:48:36;;;;;;;5.68;4.10;;;25.40;99.90;;;;;;5019099;28;20371;-73
2022/05/18 11:51:38;;;;;;;6.30;4.70;;;24.90;99.90;;;;;;5018580;28;20030;-73
2022/05/18 11:54:30;;;;;;;7.25;4.53;;;25.10;99.90;;;;;;5032595;28;20025;-73
2022/05/18 11:57:22;;;;;;;4.68;4.10;;;26.20;99.90;;;;;;5024134;28;20118;-72
2022/05/18 12:00:08;;;;;;;5.15;4.40;;;26.50;99.90;;;;;;5014819;22;20507;-76
2022/05/18 12:02:34;;;;;;;;;;;26.60;99.90;;;;;;4988871;28;20073;-76
2022/05/18 12:05:19;;;;;;;4.97;4.13;;;27.10;99.90;;;;;;4984819;28;19910;-75
2022/05/18 12:08:24;;;;;;;8.63;4.10;;;27.30;99.90;;;;;;4987972;28;20026;-75
2022/05/18 12:10:56;;;;;;;6.30;3.97;;;27.50;99.90;;;;;;4971543;28;20031;-75
2022/05/18 12:13:42;;;;;;;4.30;3.90;;;27.70;99.90;;;;;;4967623;28;20102;-74
2022/05/18 12:16:24;;;;;;;;;;;27.40;99.90;;;;;;4970617;28;20033;-75
2022/05/18 12:19:04;;;;;;;4.35;3.75;;;27.10;99.90;;;;;;4990945;28;19941;-75
2022/05/18 12:21:47;;;;;;;5.45;3.88;;;27.80;99.90;;;;;;4984822;28;20034;-75
2022/05/18 12:24:13;;;;;;;7.75;4.40;;;28.50;99.90;;;;;;4970144;28;20038;-76
2022/05/18 12:26:43;;;;;;;6.13;4.38;;;28.10;99.90;;;;;;4981102;28;20027;-76
2022/05/18 12:29:11;;;;;;;5.10;4.18;;;27.70;99.90;;;;;;4992560;28;20419;-75
2022/05/18 12:31:39;;;;;;;5.00;4.25;;;26.40;99.90;;;;;;4980172;28;20029;-76
2022/05/18 12:34:16;;;;;;;7.57;4.70;;;26.10;99.90;;;;;;4984209;28;20508;-75
2022/05/18 12:36:55;;;;;;;5.93;4.00;;;25.90;99.90;;;;;;4987545;28;20097;-75
2022/05/18 12:39:43;;;;;;;8.98;4.10;;;26.80;99.90;;;;;;4985023;28;20038;-75
2022/05/18 12:42:16;;;;;;;5.55;3.90;;;27.50;99.90;;;;;;4969971;28;20034;-75
2022/05/18 12:44:45;;;;;;;5.32;3.95;;;27.20;99.90;;;;;;4980941;28;20031;-75
2022/05/18 12:47:18;;;;;;;5.85;4.35;;;27.00;99.90;;;;;;4983809;28;20027;-76
2022/05/18 12:49:45;;;;;;;4.80;4.18;;;26.50;99.90;;;;;;4972790;28;20423;-74
2022/05/18 12:52:33;;;;;;;5.50;4.35;;;26.40;99.90;;;;;;4983367;28;20023;-75
2022/05/18 12:55:17;;;;;;;5.30;3.75;;;26.50;99.90;;;;;;4961140;28;20026;-75
2022/05/18 12:57:42;;;;;;;5.32;4.10;;;26.50;99.90;;;;;;4985760;28;20159;-75
2022/05/18 13:00:23;;;;;;;5.93;4.20;;;26.90;99.90;;;;;;4982449;28;20535;-75
2022/05/18 13:03:09;;;;;;;5.28;4.10;;;28.10;99.90;;;;;;4980511;28;20400;-75
2022/05/18 13:05:42;;;;;;;7.28;4.03;;;29.00;99.90;;;;;;4968710;28;20050;-76
2022/05/18 13:08:17;;;;;;;5.30;3.83;;;29.40;99.90;;;;;;4984319;28;20385;-75
2022/05/18 13:11:07;;;;;;;4.57;4.00;;;28.30;99.90;;;;;;4973211;28;20019;-75
2022/05/18 13:13:58;;;;;;;5.32;4.13;;;29.30;99.90;;;;;;4974229;28;20018;-76
2022/05/18 13:16:38;;;;;;;5.50;4.03;;;30.20;99.90;;;;;;4983179;28;20027;-75
2022/05/18 13:19:13;;;;;;;4.78;3.58;;;30.60;99.90;;;;;;4978892;28;20488;-76
2022/05/18 13:21:46;;;;;;;4.43;3.80;;;30.70;99.90;;;;;;4979477;28;20038;-75
2022/05/18 13:24:17;;;;;;;4.45;3.80;;;30.80;99.80;;;;;;4991686;28;20570;-75
2022/05/18 13:26:46;;;;;;;4.10;3.45;;;30.90;99.00;;;;;;4992612;28;20449;-75